Time;durP1;ratioP1;P1;durP2;ratioP2;P2;SDS_P1;SDS_P2;PMS_P1;PMS_P2;Temp;Humidity;BMP_temperature;BMP_pressure;BME280_temperature;BME280_humidity;BME280_pressure;Samples;Min_cycle;Max_cycle;Signal;HPM_P1;HPM_P2
2023/01/16 00:02:19;;;;;;;1.80;1.10;;;6.20;85.20;;;6.70;52.41;97587.34;4966304;28;124546;-73
2023/01/16 00:04:46;;;;;;;2.97;1.30;;;6.30;85.20;;;6.70;51.97;97581.88;4965103;28;122967;-73
2023/01/16 00:07:12;;;;;;;1.40;0.90;;;6.20;85.00;;;6.70;52.19;97565.41;4948440;28;119654;-73
2023/01/16 00:09:40;;;;;;;1.20;1.00;;;6.20;85.00;;;6.68;52.09;97568.44;4949907;28;118941;-73
2023/01/16 00:12:07;;;;;;;3.73;1.33;;;6.20;84.90;;;6.69;52.15;97559.09;4948377;28;123908;-73
2023/01/16 00:14:33;;;;;;;2.20;1.10;;;6.20;84.80;;;6.69;52.12;97563.75;4954524;28;123938;-74
2023/01/16 00:17:00;;;;;;;1.67;1.20;;;6.20;84.80;;;6.68;51.64;97556.66;4952323;28;119247;-75
2023/01/16 00:19:26;;;;;;;3.80;1.30;;;6.20;84.70;;;6.67;52.11;97555.06;4934932;28;118303;-74
2023/01/16 00:21:52;;;;;;;3.70;1.20;;;6.20;84.80;;;6.70;51.67;97549.72;4961489;28;122161;-73
2023/01/16 00:24:19;;;;;;;1.60;1.20;;;6.30;84.90;;;6.74;51.66;97541.66;4950595;28;123608;-73
2023/01/16 00:26:45;;;;;;;3.20;1.23;;;6.30;84.90;;;6.76;51.79;97537.47;4946489;28;120404;-73
2023/01/16 00:29:12;;;;;;;2.03;1.20;;;6.30;84.90;;;6.78;51.49;97534.41;4949966;28;119850;-73
2023/01/16 00:31:38;;;;;;;2.60;1.20;;;6.30;84.80;;;6.80;51.65;97524.75;4950096;28;124212;-73
2023/01/16 00:34:05;;;;;;;1.37;1.10;;;6.30;84.80;;;6.84;52.01;97533.13;4948043;28;123903;-73
2023/01/16 00:36:31;;;;;;;1.30;1.00;;;6.40;84.80;;;6.85;51.84;97521.00;4935146;28;118631;-73
2023/01/16 00:38:58;;;;;;;3.07;1.20;;;6.40;84.70;;;6.89;51.46;97519.25;4946907;28;118969;-73
2023/01/16 00:41:24;;;;;;;3.93;2.00;;;6.40;84.60;;;6.92;51.93;97521.38;4959630;28;124151;-73
2023/01/16 00:43:51;;;;;;;1.97;1.30;;;6.40;84.60;;;6.94;51.32;97508.13;4950330;28;123575;-72
2023/01/16 00:46:18;;;;;;;1.30;1.00;;;6.40;84.40;;;6.98;51.37;97506.34;4957241;28;119283;-73
2023/01/16 00:48:44;;;;;;;1.57;1.03;;;6.50;84.50;;;7.00;51.29;97498.59;4949612;28;118883;-73
2023/01/16 00:51:11;;;;;;;1.83;1.20;;;6.50;84.50;;;7.01;51.53;97489.25;4949458;28;123991;-73
2023/01/16 00:53:37;;;;;;;1.27;1.10;;;6.50;84.40;;;7.03;51.55;97480.69;4952441;28;122949;-73
2023/01/16 00:56:05;;;;;;;5.40;1.17;;;6.50;84.30;;;7.03;51.50;97476.00;4945898;28;118367;-73
2023/01/16 00:58:32;;;;;;;1.30;1.20;;;6.60;84.40;;;7.06;51.10;97474.53;4946951;28;118375;-73
2023/01/16 01:00:58;;;;;;;2.60;1.10;;;6.60;84.30;;;7.06;51.57;97469.03;4949343;28;124511;-74
2023/01/16 01:03:25;;;;;;;2.00;0.90;;;6.60;84.20;;;7.05;51.54;97471.00;4950783;28;123807;-73
2023/01/16 01:05:51;;;;;;;1.70;1.20;;;6.60;84.10;;;7.05;50.82;97465.50;4954580;28;119180;-73
2023/01/16 01:08:18;;;;;;;4.23;1.17;;;6.60;84.00;;;7.02;50.86;97451.63;4955453;28;118567;-79
2023/01/16 01:11:10;;;;;;;4.10;1.27;;;6.50;83.80;;;7.00;50.88;97451.13;4958940;28;124416;-73
2023/01/16 01:13:38;;;;;;;2.90;1.40;;;6.50;83.70;;;6.95;51.04;97445.78;4965975;28;122747;-73
2023/01/16 01:16:06;;;;;;;3.30;1.50;;;6.50;83.70;;;6.93;51.33;97446.13;4957941;28;119962;-73
2023/01/16 01:18:33;;;;;;;12.50;2.03;;;6.50;83.70;;;6.91;51.19;97440.13;4970199;28;119594;-73
2023/01/16 01:20:59;;;;;;;4.57;1.20;;;6.50;83.70;;;6.90;50.90;97427.53;4961487;28;124031;-73
2023/01/16 01:23:26;;;;;;;2.03;1.10;;;6.50;83.80;;;6.90;50.85;97426.72;4963930;28;124290;-74
2023/01/16 01:25:52;;;;;;;2.10;1.00;;;6.50;83.80;;;6.90;51.03;97423.97;4958705;28;118852;-74
2023/01/16 01:28:19;;;;;;;3.80;1.17;;;6.90;84.10;;;6.89;51.27;97417.69;4964213;28;119279;-74
2023/01/16 01:30:46;;;;;;;1.40;1.10;;;6.40;83.50;;;6.88;51.20;97420.75;4969363;28;123902;-75
2023/01/16 01:33:13;;;;;;;3.90;1.20;;;6.40;83.60;;;6.88;50.84;97428.97;4963254;28;124248;-75
2023/01/16 01:35:40;;;;;;;0.97;0.87;;;6.40;83.60;;;6.85;51.19;97422.19;4966305;28;119156;-73
2023/01/16 01:38:07;;;;;;;1.30;1.00;;;6.40;83.60;;;6.83;51.23;97422.53;4968993;28;119882;-74
2023/01/16 01:40:34;;;;;;;2.20;1.10;;;6.40;83.50;;;6.79;50.92;97413.31;4967206;28;123280;-74
2023/01/16 01:43:00;;;;;;;2.17;1.30;;;6.40;83.50;;;6.79;51.48;97409.75;4971756;28;123433;-75
2023/01/16 01:45:30;;;;;;;1.67;1.00;;;6.40;83.60;;;6.83;50.98;97403.31;4972994;28;118488;-74
2023/01/16 01:48:20;;;;;;;1.60;1.10;;;6.40;83.70;;;6.86;51.24;97410.91;4970443;28;118745;-75
2023/01/16 01:51:03;;;;;;;1.40;1.00;;;6.40;83.70;;;6.89;51.09;97414.13;4962987;28;123886;-74
2023/01/16 01:53:55;;;;;;;3.43;1.07;;;6.40;83.70;;;6.87;50.90;97392.47;4965697;28;124207;-74
2023/01/16 01:56:45;;;;;;;2.20;1.07;;;6.40;83.50;;;6.87;51.13;97389.72;4950247;28;118190;-72
2023/01/16 01:59:17;;;;;;;2.53;1.17;;;6.40;84.20;;;6.84;51.16;97373.91;4965248;28;118765;-73
2023/01/16 02:01:44;;;;;;;3.63;1.57;;;6.40;83.50;;;6.83;50.95;97372.31;4965596;28;123777;-73
2023/01/16 02:04:18;;;;;;;1.90;1.23;;;6.40;83.50;;;6.84;51.19;97368.44;4952141;28;124391;-73
2023/01/16 02:06:49;;;;;;;3.37;1.00;;;6.40;83.50;;;6.82;50.77;97356.94;4966325;28;119797;-72
2023/01/16 02:09:16;;;;;;;2.37;1.00;;;6.40;83.50;;;6.80;50.94;97351.00;4965133;28;119678;-72
2023/01/16 02:11:57;;;;;;;1.80;1.00;;;6.40;83.50;;;6.79;51.01;97333.69;4967680;28;123897;-73
2023/01/16 02:14:28;;;;;;;3.07;1.27;;;6.30;83.40;;;6.74;51.13;97335.81;4964665;28;123837;-73
2023/01/16 02:20:09;;;;;;;2.07;1.20;;;6.20;83.40;;;6.55;50.98;97312.22;4963664;28;119378;-73
2023/01/16 02:23:00;;;;;;;1.20;1.00;;;6.10;83.20;;;6.52;50.87;97296.41;4983851;28;122138;-72
2023/01/16 02:26:29;;;;;;;1.63;1.20;;;6.10;83.40;;;6.46;51.01;97292.22;4967756;28;124084;-73
2023/01/16 02:29:14;;;;;;;2.80;1.40;;;6.10;83.40;;;6.40;51.29;97277.06;4959154;28;119481;-73
2023/01/16 02:31:52;;;;;;;1.80;1.17;;;6.00;83.40;;;6.37;51.80;97264.81;4967403;28;118691;-73
2023/01/16 02:35:03;;;;;;;4.20;0.90;;;6.00;83.50;;;6.35;51.65;97264.31;4966823;28;124121;-73
2023/01/16 02:37:46;;;;;;;1.60;1.30;;;6.00;83.60;;;6.34;51.09;97259.97;4970105;28;123911;-73
2023/01/16 02:40:51;;;;;;;2.97;1.23;;;5.90;83.60;;;6.33;51.89;97254.78;4968750;28;119009;-73
2023/01/16 02:43:34;;;;;;;1.33;0.90;;;5.90;83.70;;;6.32;51.58;97244.97;4967677;28;118835;-73
2023/01/16 02:46:22;;;;;;;1.60;1.43;;;5.90;83.70;;;6.29;51.74;97242.88;4967346;28;123963;-73
2023/01/16 02:48:59;;;;;;;3.63;1.00;;;5.90;83.60;;;6.27;51.87;97228.66;4969692;28;123849;-73
2023/01/16 02:51:50;;;;;;;1.77;0.90;;;5.90;83.90;;;6.28;51.57;97222.84;4967147;28;119685;-73
2023/01/16 02:54:24;;;;;;;1.40;1.10;;;6.00;83.90;;;6.27;51.88;97213.00;4965894;28;118924;-73
2023/01/16 02:57:11;;;;;;;1.97;0.90;;;5.90;83.90;;;6.28;51.92;97209.13;4968159;28;124021;-73
2023/01/16 02:59:40;;;;;;;1.87;1.10;;;5.80;83.90;;;6.26;52.27;97194.13;4968325;28;122686;-73
2023/01/16 03:02:08;;;;;;;2.73;1.20;;;5.80;84.00;;;6.26;51.86;97180.41;4964387;28;120244;-73
2023/01/16 03:04:42;;;;;;;5.03;1.10;;;5.80;84.00;;;6.29;51.79;97182.53;4967152;28;119929;-73
2023/01/16 03:07:44;;;;;;;2.03;1.30;;;5.80;84.10;;;6.29;51.67;97174.31;4966168;28;123691;-73
2023/01/16 03:11:28;;;;;;;2.50;1.20;;;5.80;84.00;;;6.25;51.84;97165.09;4966720;28;123874;-75
2023/01/16 03:14:28;;;;;;;2.63;1.03;;;5.80;84.00;;;6.22;52.01;97146.56;4891447;28;117998;-73
2023/01/16 03:17:37;;;;;;;2.40;1.13;;;5.80;84.00;;;6.20;51.92;97135.91;4955626;28;119273;-73
2023/01/16 03:20:47;;;;;;;2.70;1.00;;;5.80;84.00;;;6.18;52.11;97133.50;4946880;28;123321;-73
2023/01/16 03:23:39;;;;;;;2.43;1.00;;;5.80;84.10;;;6.18;52.07;97128.00;4966429;28;123484;-73
2023/01/16 03:26:40;;;;;;;3.20;1.07;;;5.80;84.10;;;6.17;52.63;97117.38;4966995;28;118854;-73
2023/01/16 03:29:27;;;;;;;1.37;1.10;;;5.80;84.10;;;6.18;51.89;97111.56;4964533;28;119814;-73
2023/01/16 03:32:19;;;;;;;1.73;1.00;;;5.80;84.10;;;6.21;51.95;97101.88;4963814;28;126436;-73
2023/01/16 03:34:50;;;;;;;5.17;1.00;;;5.80;84.20;;;6.20;52.42;97103.00;4966645;28;123506;-73
2023/01/16 03:37:40;;;;;;;1.40;1.03;;;5.80;84.10;;;6.26;52.17;97098.16;4952412;28;119426;-73
2023/01/16 03:40:11;;;;;;;1.70;1.00;;;5.80;84.10;;;6.27;52.22;97097.03;4955446;28;118965;-73
2023/01/16 03:42:52;;;;;;;3.60;1.33;;;5.80;84.10;;;6.31;52.22;97081.50;4962018;28;124307;-73
2023/01/16 03:45:40;;;;;;;2.00;1.10;;;5.90;84.30;;;6.34;51.78;97072.63;4965529;28;122707;-74
2023/01/16 03:48:29;;;;;;;2.97;1.60;;;5.90;84.30;;;6.33;52.39;97062.81;4970945;28;117101;-74
2023/01/16 03:51:05;;;;;;;3.03;1.30;;;5.90;84.20;;;6.32;52.14;97055.72;4971268;28;117894;-74
2023/01/16 03:54:16;;;;;;;2.77;1.20;;;5.90;84.20;;;6.35;52.18;97052.31;4968442;28;124593;-73
2023/01/16 03:56:50;;;;;;;2.03;1.03;;;5.90;84.20;;;6.36;52.05;97045.69;4949859;28;123873;-73
2023/01/16 03:59:17;;;;;;;1.20;0.90;;;5.90;84.20;;;6.36;52.06;97034.72;4959636;28;120139;-74
2023/01/16 04:02:17;;;;;;;2.57;1.27;;;6.00;84.30;;;6.39;51.49;97034.06;4965092;28;119763;-73
2023/01/16 04:05:00;;;;;;;3.10;1.20;;;6.00;84.20;;;6.42;51.44;97011.44;4949800;28;123830;-73
2023/01/16 04:07:35;;;;;;;1.13;1.00;;;6.00;84.20;;;6.42;52.24;97014.19;4947080;28;122454;-73
2023/01/16 04:10:07;;;;;;;2.60;1.10;;;6.00;84.20;;;6.43;51.79;96991.13;4963433;28;119382;-73
2023/01/16 04:12:40;;;;;;;1.03;0.93;;;6.00;84.10;;;6.43;51.57;96984.84;4967341;28;118133;-73
2023/01/16 04:15:09;;;;;;;9.10;3.80;;;6.00;84.10;;;6.41;52.05;96985.97;4966001;28;124000;-74
2023/01/16 04:17:39;;;;;;;2.07;1.00;;;6.00;84.10;;;6.40;52.16;96980.81;4967884;28;123709;-74
2023/01/16 04:20:08;;;;;;;1.97;1.00;;;6.00;84.10;;;6.38;51.86;96977.59;4968474;28;119092;-74
2023/01/16 04:22:35;;;;;;;1.53;1.13;;;6.00;84.00;;;6.38;51.70;96966.63;4969132;28;118432;-73
2023/01/16 04:25:07;;;;;;;3.00;1.30;;;6.00;84.00;;;6.39;52.00;96962.75;4969398;28;124225;-74
2023/01/16 04:27:34;;;;;;;1.47;0.97;;;6.00;84.00;;;6.38;52.02;96950.16;4963526;28;123680;-73
2023/01/16 04:30:01;;;;;;;2.40;1.30;;;5.90;83.90;;;6.38;51.75;96953.72;4967579;28;119061;-78
2023/01/16 04:32:27;;;;;;;1.47;1.20;;;6.00;84.00;;;6.38;51.58;96948.22;4966638;28;118230;-74
2023/01/16 04:34:54;;;;;;;1.30;1.00;;;6.00;84.00;;;6.38;51.72;96930.97;4962755;28;123445;-74
2023/01/16 04:37:20;;;;;;;1.67;1.17;;;6.00;84.00;;;6.40;51.25;96932.25;4963788;28;123910;-74
2023/01/16 04:39:49;;;;;;;2.70;1.20;;;6.00;84.00;;;6.41;51.53;96911.09;4964986;28;119307;-74
2023/01/16 04:42:15;;;;;;;3.23;1.20;;;6.60;84.50;;;6.37;52.06;96900.00;4957851;28;118995;-74
2023/01/16 04:44:42;;;;;;;1.83;1.10;;;5.90;83.90;;;6.37;51.72;96897.25;4895575;28;1215238;-74
2023/01/16 04:47:09;;;;;;;2.97;1.13;;;5.90;84.00;;;6.39;51.86;96883.19;4951816;28;123851;-74
2023/01/16 04:49:35;;;;;;;3.50;1.20;;;5.90;84.00;;;6.39;52.03;96880.44;4980772;28;120212;-74
2023/01/16 04:52:02;;;;;;;1.13;1.00;;;5.90;83.90;;;6.39;52.09;96862.09;4967688;28;119993;-74
2023/01/16 04:54:29;;;;;;;3.13;1.20;;;5.90;83.90;;;6.39;51.52;96853.03;4966831;28;123249;-74
2023/01/16 04:56:55;;;;;;;1.33;0.90;;;5.90;83.90;;;6.36;51.85;96845.47;4964990;28;123856;-74
2023/01/16 04:59:22;;;;;;;1.00;0.90;;;5.90;83.80;;;6.34;51.91;96834.00;4965474;28;119189;-74
2023/01/16 05:01:48;;;;;;;3.03;1.37;;;5.90;83.70;;;6.33;52.02;96829.69;4965261;28;118905;-74
2023/01/16 05:04:16;;;;;;;1.37;1.10;;;5.90;83.70;;;6.32;51.68;96830.81;4964771;28;123959;-74
2023/01/16 05:06:42;;;;;;;1.77;1.37;;;5.90;83.60;;;6.31;51.24;96827.25;4955392;28;123968;-73
2023/01/16 05:09:09;;;;;;;1.87;1.10;;;5.90;83.70;;;6.33;51.60;96815.97;4964685;28;119083;-74
2023/01/16 05:11:36;;;;;;;1.50;1.00;;;5.90;83.80;;;6.34;51.80;96806.59;4965764;28;119089;-73
2023/01/16 05:14:07;;;;;;;2.50;1.20;;;5.90;83.90;;;6.36;52.15;96796.09;4965700;28;124175;-76
2023/01/16 05:16:35;;;;;;;1.40;1.30;;;5.90;83.90;;;6.38;51.71;96802.06;4971644;28;123825;-75
2023/01/16 05:19:02;;;;;;;1.10;1.00;;;5.90;83.90;;;6.36;52.08;96785.13;4969640;28;118613;-74
2023/01/16 05:21:29;;;;;;;4.10;1.50;;;5.90;84.00;;;6.35;51.87;96786.28;4968427;28;118760;-74
2023/01/16 05:23:56;;;;;;;3.80;1.63;;;5.90;84.00;;;6.31;51.69;96763.38;4964086;28;124435;-77
2023/01/16 05:26:22;;;;;;;2.03;1.20;;;5.80;84.00;;;6.27;52.16;96770.69;4965975;28;124019;-73
2023/01/16 05:28:48;;;;;;;2.33;1.10;;;5.80;84.10;;;6.22;52.34;96759.91;4965419;28;119207;-74
2023/01/16 05:31:15;;;;;;;1.90;1.40;;;5.70;84.10;;;6.20;52.25;96754.75;4964958;28;119031;-74
2023/01/16 05:33:42;;;;;;;2.60;1.23;;;5.70;84.30;;;6.19;52.29;96753.97;4964612;28;123911;-74
2023/01/16 05:36:08;;;;;;;1.97;1.17;;;5.90;84.50;;;6.16;52.00;96745.63;4963664;28;123892;-74
2023/01/16 05:38:35;;;;;;;2.50;1.20;;;5.70;84.40;;;6.15;52.45;96733.03;4965174;28;120053;-74
2023/01/16 05:41:01;;;;;;;1.43;1.30;;;5.70;84.50;;;6.14;52.67;96729.47;4964662;28;120077;-74
2023/01/16 05:43:28;;;;;;;3.50;1.87;;;5.70;84.50;;;6.11;52.26;96721.13;4951445;28;124083;-74
2023/01/16 05:45:54;;;;;;;2.17;1.10;;;5.70;84.60;;;6.07;52.58;96712.78;4960638;28;124024;-74
2023/01/16 05:48:21;;;;;;;6.67;1.97;;;5.60;84.50;;;6.03;52.77;96702.81;4965999;28;119178;-74
2023/01/16 05:50:47;;;;;;;1.40;1.20;;;5.60;84.60;;;6.01;52.29;96692.16;4964089;28;118969;-74
2023/01/16 05:53:14;;;;;;;2.60;1.40;;;5.60;84.70;;;6.01;52.76;96683.16;4964170;28;124101;-74
2023/01/16 05:55:46;;;;;;;2.80;1.30;;;5.50;84.70;;;6.00;53.06;96665.91;4965773;28;124078;-74
2023/01/16 05:58:15;;;;;;;3.90;1.40;;;5.50;84.70;;;5.94;53.17;96661.78;4966399;28;119138;-74
2023/01/16 06:00:42;;;;;;;1.70;1.00;;;5.50;84.80;;;5.90;52.96;96658.06;4969227;28;118823;-75
2023/01/16 06:03:09;;;;;;;3.67;1.30;;;5.40;84.90;;;5.89;53.23;96664.69;4969733;28;124138;-75
2023/01/16 06:05:36;;;;;;;2.70;1.27;;;5.40;85.00;;;5.91;53.34;96654.16;4967395;28;123474;-74
2023/01/16 06:08:04;;;;;;;1.63;1.20;;;5.40;85.20;;;5.95;52.83;96649.66;4962329;28;119354;-75
2023/01/16 06:10:32;;;;;;;3.50;1.50;;;5.50;85.30;;;5.96;52.88;96643.03;4963006;28;118898;-75
2023/01/16 06:13:01;;;;;;;2.93;1.47;;;5.50;85.30;;;5.97;53.10;96644.66;4974577;28;123647;-74
2023/01/16 06:15:28;;;;;;;2.70;1.73;;;5.50;85.30;;;5.99;53.20;96625.91;4943754;28;123664;-75
2023/01/16 06:17:57;;;;;;;3.03;1.47;;;5.70;85.40;;;5.99;52.57;96609.47;4939461;28;118986;-74
2023/01/16 06:20:24;;;;;;;4.50;1.80;;;5.60;85.30;;;6.01;53.30;96598.97;4905923;28;118785;-74
2023/01/16 06:22:50;;;;;;;2.20;1.63;;;5.50;85.00;;;6.01;52.86;96593.50;4916755;28;123305;-74
2023/01/16 06:25:17;;;;;;;3.87;2.50;;;5.50;85.00;;;6.02;52.51;96589.63;4928851;28;125439;-74
2023/01/16 06:27:50;;;;;;;4.97;2.70;;;5.50;84.90;;;6.05;52.48;96578.00;4926312;28;121627;-75
2023/01/16 06:30:17;;;;;;;3.03;1.67;;;5.60;84.90;;;6.08;52.53;96574.56;4931845;28;119728;-74
2023/01/16 06:32:49;;;;;;;5.40;1.97;;;5.60;84.90;;;6.12;52.92;96569.22;4932244;28;124124;-75
2023/01/16 06:35:16;;;;;;;2.10;1.70;;;5.60;84.80;;;6.14;52.65;96559.50;4926927;28;122818;-74
2023/01/16 06:37:43;;;;;;;4.03;1.43;;;5.60;84.80;;;6.17;52.38;96558.81;4924241;28;119142;-74
2023/01/16 06:40:10;;;;;;;2.57;1.40;;;5.70;85.00;;;6.20;52.08;96544.44;4931161;28;118808;-75
2023/01/16 06:42:36;;;;;;;3.20;1.43;;;5.70;84.90;;;6.23;52.50;96539.41;4932073;28;123695;-76
2023/01/16 06:45:03;;;;;;;4.13;1.60;;;5.70;84.90;;;6.27;52.31;96529.38;4928739;28;123836;-76
2023/01/16 06:47:31;;;;;;;1.80;1.20;;;5.80;84.90;;;6.28;52.62;96528.22;4955682;28;119325;-76
2023/01/16 06:49:58;;;;;;;2.00;1.47;;;5.80;84.90;;;6.30;52.47;96525.97;4962674;28;118165;-76
2023/01/16 06:52:24;;;;;;;3.40;1.60;;;5.80;84.90;;;6.32;52.52;96518.19;4942434;28;123192;-76
2023/01/16 06:54:51;;;;;;;2.17;1.40;;;5.80;84.90;;;6.33;52.64;96514.31;4957864;28;123859;-75
2023/01/16 06:57:17;;;;;;;1.80;1.30;;;5.80;84.70;;;6.35;52.38;96514.78;4966610;28;119222;-75
2023/01/16 06:59:44;;;;;;;3.50;1.33;;;5.80;84.70;;;6.34;51.94;96518.63;4963009;28;119055;-75
2023/01/16 07:02:10;;;;;;;1.57;1.47;;;5.80;84.50;;;6.33;51.64;96511.56;4964725;28;123531;-75
2023/01/16 07:04:37;;;;;;;1.37;1.13;;;5.80;84.30;;;6.31;51.56;96503.66;4941314;28;123362;-77
2023/01/16 07:07:03;;;;;;;2.50;1.30;;;5.80;84.20;;;6.29;51.84;96486.78;4963802;28;119172;-75
2023/01/16 07:09:30;;;;;;;2.97;1.47;;;5.80;84.10;;;6.28;52.24;96479.66;4964937;28;117889;-75
2023/01/16 07:11:56;;;;;;;4.30;1.53;;;5.80;84.20;;;6.27;51.64;96478.06;4983948;28;123009;-75
2023/01/16 07:22:43;;;;;;;1.40;1.30;;;5.80;84.00;;;6.23;51.57;96460.69;4961116;28;125012;-75
2023/01/16 07:25:27;;;;;;;3.73;1.37;;;5.70;83.80;;;6.24;51.40;96450.56;4959284;28;124335;-75
2023/01/16 07:27:54;;;;;;;2.70;1.80;;;5.70;83.90;;;6.23;51.74;96455.22;4966860;28;121465;-75
2023/01/16 07:30:21;;;;;;;3.27;1.40;;;5.80;83.80;;;6.23;51.91;96448.94;4969254;28;119885;-76
2023/01/16 07:33:08;;;;;;;1.40;1.30;;;5.70;83.70;;;6.26;51.84;96431.78;4962944;28;124175;-75
2023/01/16 07:35:34;;;;;;;2.00;1.20;;;5.70;83.70;;;6.20;52.01;96425.75;4966184;28;123564;-75
2023/01/16 07:38:01;;;;;;;3.20;1.33;;;5.70;83.70;;;6.19;51.76;96427.69;4964639;28;119287;-75
2023/01/16 07:40:27;;;;;;;1.73;1.50;;;5.70;83.60;;;6.18;51.44;96423.34;4968880;28;119070;-75
2023/01/16 07:42:54;;;;;;;2.50;1.80;;;5.80;83.70;;;6.19;51.48;96426.91;4960995;28;124050;-76
2023/01/16 07:45:20;;;;;;;2.70;1.33;;;5.80;83.70;;;6.20;51.96;96426.53;4967388;28;125125;-76
2023/01/16 07:47:47;;;;;;;1.93;1.20;;;5.70;83.60;;;6.22;52.05;96417.19;4969272;28;118469;-76
2023/01/16 07:50:13;;;;;;;1.57;1.43;;;5.90;83.70;;;6.24;51.73;96412.16;4964489;28;118910;-75
2023/01/16 07:52:42;;;;;;;2.80;1.70;;;5.80;83.60;;;6.25;51.15;96397.31;4967023;28;123911;-75
2023/01/16 07:55:09;;;;;;;3.13;1.80;;;5.80;83.30;;;6.25;51.69;96394.56;4960884;28;123932;-76
2023/01/16 07:57:37;;;;;;;3.20;1.63;;;5.80;83.40;;;6.27;51.58;96400.50;4967879;28;121148;-76
2023/01/16 08:00:06;;;;;;;2.17;1.30;;;5.90;83.50;;;6.33;50.91;96393.66;4965077;28;118784;-76
2023/01/16 08:02:33;;;;;;;2.90;1.50;;;5.90;83.50;;;6.37;51.40;96384.38;4944239;28;123293;-76
2023/01/16 08:04:59;;;;;;;1.83;1.60;;;5.90;83.40;;;6.41;51.01;96368.81;4965391;28;124315;-75
2023/01/16 08:07:26;;;;;;;2.00;1.30;;;5.90;83.20;;;6.44;51.11;96359.13;4965289;28;120060;-76
2023/01/16 08:09:52;;;;;;;2.50;1.57;;;6.00;83.20;;;6.46;50.79;96350.56;4958776;28;120173;-77
2023/01/16 08:12:18;;;;;;;1.40;1.10;;;6.00;83.10;;;6.49;50.59;96342.41;4953320;28;124007;-76
2023/01/16 08:14:45;;;;;;;4.97;1.60;;;6.00;83.10;;;6.53;51.36;96343.34;4951272;28;123076;-76
2023/01/16 08:17:11;;;;;;;2.27;1.63;;;6.00;83.30;;;6.57;51.04;96344.22;4952068;28;119320;-76
2023/01/16 08:19:38;;;;;;;3.37;1.50;;;6.10;83.40;;;6.63;51.28;96334.59;4953685;28;118111;-76
2023/01/16 08:22:04;;;;;;;2.40;1.30;;;6.10;83.30;;;6.67;50.75;96326.50;4964937;28;123992;-76
2023/01/16 08:24:31;;;;;;;1.97;1.30;;;6.20;82.70;;;6.68;50.70;96333.56;4958704;28;123917;-76
2023/01/16 08:26:57;;;;;;;1.40;1.30;;;6.20;82.80;;;6.71;50.39;96329.31;4965332;28;119342;-76
2023/01/16 08:29:25;;;;;;;2.00;1.40;;;6.20;82.50;;;6.73;50.14;96321.56;4965158;28;118698;-76
2023/01/16 08:31:51;;;;;;;2.97;1.17;;;6.20;82.20;;;6.72;49.47;96318.03;4957010;28;123704;-76
2023/01/16 08:34:18;;;;;;;1.40;1.30;;;6.20;81.90;;;6.74;49.79;96320.41;4962159;28;123567;-76
2023/01/16 08:36:44;;;;;;;1.40;1.17;;;6.20;81.80;;;6.76;49.08;96307.13;4960875;28;119357;-75
2023/01/16 08:39:11;;;;;;;3.80;1.40;;;6.30;81.60;;;6.78;49.39;96304.84;4950613;28;118745;-75
2023/01/16 08:52:48;;;;;;;4.13;1.53;;;6.30;80.50;;;6.77;49.21;96281.28;4963096;28;124735;-75
2023/01/16 08:55:15;;;;;;;2.00;1.30;;;6.30;80.50;;;6.79;48.90;96289.97;4951403;28;123559;-75
2023/01/16 08:57:41;;;;;;;8.27;2.57;;;6.40;80.10;;;6.82;49.07;96290.09;4950729;28;119140;-75
2023/01/16 09:00:09;;;;;;;3.30;2.13;;;6.30;80.40;;;6.88;48.83;96287.06;4964642;28;119967;-75
2023/01/16 09:02:36;;;;;;;2.53;1.63;;;6.40;80.30;;;6.91;48.56;96297.38;4961684;28;122542;-75
2023/01/16 09:05:03;;;;;;;2.13;1.37;;;6.40;80.10;;;6.93;48.63;96295.88;4960559;28;123442;-75
2023/01/16 09:07:30;;;;;;;2.30;1.43;;;6.40;80.00;;;6.97;48.32;96287.72;4965480;28;119185;-75
2023/01/16 09:09:56;;;;;;;4.20;1.80;;;6.70;80.10;;;6.97;47.79;96283.03;4961996;28;118853;-75
2023/01/16 09:15:08;;;;;;;3.23;1.20;;;6.50;79.80;;;7.06;48.23;96302.06;4950635;28;124687;-75
2023/01/16 09:17:35;;;;;;;4.57;1.40;;;6.60;79.70;;;7.10;47.75;96307.69;4950843;28;119221;-75
2023/01/16 09:20:02;;;;;;;1.70;1.10;;;6.60;79.60;;;7.14;47.83;96325.84;4948325;28;119007;-76
2023/01/16 09:22:29;;;;;;;2.57;1.30;;;6.60;79.30;;;7.16;47.57;96325.50;4948303;28;125283;-75
2023/01/16 09:24:55;;;;;;;1.40;1.10;;;6.60;79.00;;;7.20;47.37;96329.13;4952790;28;123810;-75
2023/01/16 09:27:24;;;;;;;2.40;1.23;;;6.70;79.00;;;7.21;47.81;96322.50;4950742;28;119093;-74
2023/01/16 09:29:51;;;;;;;3.70;1.43;;;6.70;78.90;;;7.23;47.59;96326.50;4951424;28;118567;-74
2023/01/16 09:32:18;;;;;;;2.00;1.30;;;6.70;78.70;;;7.20;46.52;96305.22;4949784;28;123882;-74
2023/01/16 09:34:45;;;;;;;2.47;1.50;;;6.70;77.10;;;7.20;46.44;96290.66;4963089;28;123949;-77
2023/01/16 09:37:12;;;;;;;3.67;1.33;;;6.80;77.70;;;7.23;46.86;96295.50;4950013;28;117952;-77
2023/01/16 09:39:38;;;;;;;2.53;1.37;;;6.70;77.60;;;7.25;46.26;96274.75;4958666;28;119088;-76
2023/01/16 09:45:33;;;;;;;1.80;1.37;;;7.10;77.80;;;7.32;46.04;96251.38;4906492;28;124474;-75
2023/01/16 09:48:07;;;;;;;2.23;1.40;;;6.80;77.20;;;7.34;45.49;96255.34;4878866;28;120971;-76
2023/01/16 09:50:43;;;;;;;2.60;1.30;;;6.80;76.60;;;7.38;45.92;96256.22;4883829;28;119589;-75
2023/01/16 09:59:20;;;;;;;2.90;1.40;;;6.90;76.10;;;7.49;45.41;96248.25;4883004;28;119872;-75
2023/01/16 10:02:12;;;;;;;2.20;1.43;;;6.90;75.90;;;7.50;45.16;96250.66;4890434;28;119831;-74
2023/01/16 10:04:39;;;;;;;1.23;1.10;;;7.00;75.70;;;7.49;44.78;96240.81;4877501;28;123903;-75
2023/01/16 10:07:52;;;;;;;2.90;1.20;;;7.00;75.40;;;7.52;44.43;96234.63;4881411;28;123538;-75
2023/01/16 10:10:34;;;;;;;1.10;0.90;;;7.00;74.50;;;7.53;43.98;96219.72;4892605;28;117869;-75
2023/01/16 10:13:30;;;;;;;1.73;1.30;;;7.00;74.20;;;7.53;43.55;96203.22;4904900;28;119000;-77
2023/01/16 10:16:26;;;;;;;2.93;1.63;;;7.00;73.30;;;7.54;43.68;96193.03;4906672;28;125263;-75
2023/01/16 10:19:28;;;;;;;3.30;1.30;;;7.00;73.20;;;7.55;43.21;96185.59;4888961;28;123894;-74
2023/01/16 10:22:48;;;;;;;3.97;1.17;;;7.00;72.20;;;7.55;42.97;96185.59;4925536;28;119068;-75
2023/01/16 10:25:23;;;;;;;1.60;1.13;;;7.10;72.40;;;7.50;42.36;96179.22;4953440;28;119087;-74
2023/01/16 10:28:05;;;;;;;1.40;1.20;;;7.00;71.00;;;7.51;42.15;96171.78;4948944;28;125093;-76
2023/01/16 10:30:44;;;;;;;2.00;1.20;;;7.00;70.70;;;7.55;42.17;96175.41;4953874;28;122244;-75
2023/01/16 10:33:38;;;;;;;2.27;1.20;;;7.10;70.60;;;7.58;42.24;96182.94;4964624;28;119412;-75
2023/01/16 10:36:09;;;;;;;1.77;1.10;;;7.10;71.10;;;7.61;42.05;96170.44;4967000;28;116730;-80
2023/01/16 10:38:58;;;;;;;2.67;1.40;;;7.10;70.80;;;7.64;42.02;96150.47;4957947;28;123508;-77
2023/01/16 10:50:40;;;;;;;1.60;1.30;;;8.00;70.80;;;7.72;41.96;96133.00;4955147;28;124604;-75
2023/01/16 10:53:09;;;;;;;0.90;0.80;;;7.20;70.20;;;7.77;42.17;96126.44;4950868;28;123834;-75
2023/01/16 10:55:42;;;;;;;3.00;1.60;;;7.30;70.40;;;7.81;42.11;96124.53;4949774;28;118813;-75
2023/01/16 10:58:29;;;;;;;3.00;1.10;;;7.30;70.50;;;7.83;41.95;96111.25;4949791;28;118151;-75
2023/01/16 11:01:05;;;;;;;0.97;0.80;;;7.30;70.30;;;7.85;42.26;96114.44;4950560;28;123825;-76
2023/01/16 11:03:41;;;;;;;1.10;1.00;;;7.30;70.80;;;7.87;42.42;96129.41;4945044;28;123862;-75
2023/01/16 11:06:24;;;;;;;1.57;0.90;;;7.30;70.80;;;7.91;42.67;96112.97;4952909;28;119268;-75
2023/01/16 11:09:02;;;;;;;2.93;1.40;;;7.40;71.00;;;7.91;42.59;96123.97;4949822;28;118934;-75
2023/01/16 11:20:30;;;;;;;2.60;1.20;;;7.50;71.70;;;7.99;43.03;96092.72;4951509;28;119782;-75
2023/01/16 11:23:19;;;;;;;1.43;1.33;;;7.50;72.00;;;8.01;43.97;96071.16;4969213;28;123782;-75
2023/01/16 11:25:50;;;;;;;2.67;1.10;;;7.80;73.20;;;8.06;44.61;96053.56;4957128;28;122736;-75
2023/01/16 11:28:26;;;;;;;1.23;0.97;;;7.60;73.90;;;8.08;44.72;96056.75;4951752;28;120651;-74
2023/01/16 11:30:57;;;;;;;2.00;1.40;;;7.70;74.50;;;8.10;45.29;96048.94;4959240;28;118972;-75
2023/01/16 11:34:00;;;;;;;1.30;1.20;;;7.80;75.10;;;8.12;45.57;96038.38;4946220;28;123938;-75
2023/01/16 11:36:33;;;;;;;1.10;1.00;;;7.60;75.70;;;8.13;45.92;96026.19;4960501;28;123531;-75
2023/01/16 11:39:00;;;;;;;1.77;1.00;;;7.70;76.20;;;8.12;46.26;96021.88;4945792;28;120305;-75
2023/01/16 11:41:37;;;;;;;2.30;1.23;;;7.70;76.50;;;8.17;46.42;96005.88;4953042;28;120025;-75
2023/01/16 11:47:04;;;;;;;3.23;1.30;;;7.70;77.10;;;8.19;46.43;95987.06;4949896;28;124328;-75